Flight Track Log - Related Links

Times and Time Zones

All times are in EDT time to prevent confusion due to time zone crossing. See the SWA1867 flight status page for this flight to view local times or setup timezone preferences in your user account.

Time Position Orientation Groundspeed Altitude Reporting Facility
EDT Latitude Longitude Course Direction KTS MPH feet Rate Location/Type
Sun 02:01:55 PM 33.4333 -112.0333 239° Southwest 179 206 2,100  Level Phoenix TRACON
Sun 02:02:25 PM 33.4167 -112.0667 239° Southwest 179 206 2,800 1,451 Climbing Phoenix TRACON
Sun 02:03:26 PM 33.4000 -112.1333 253° West 250 288 4,300 1,962 Climbing Phoenix TRACON
Sun 02:04:09 PM 33.3769 -112.1839 241° Southwest 269 310 6,200 2,192 Climbing Albuquerque Center
Sun 02:05:10 PM 33.2975 -112.1733 174° South 292 336 8,100 1,805 Climbing Albuquerque Center
Sun 02:06:12 PM 33.2350 -112.1183 144° Southeast 307 353 9,900 2,177 Climbing Albuquerque Center
Sun 02:07:14 PM 33.2144 -112.0117 103° East 333 383 12,600 2,976 Climbing Albuquerque Center
Sun 02:08:15 PM 33.2011 -111.8939 98° East 355 409 16,000 3,122 Climbing Albuquerque Center
Sun 02:09:17 PM 33.1881 -111.7464 96° East 374 430 19,000 2,419 Climbing Albuquerque Center
Sun 02:10:19 PM 33.1750 -111.6150 97° East 396 456 21,000 1,500 Climbing Albuquerque Center
Sun 02:11:21 PM 33.1586 -111.4839 98° East 400 460 22,100 1,610 Climbing Albuquerque Center
Sun 02:12:22 PM 33.1244 -111.3494 107° East 422 486 24,300 2,195 Climbing Albuquerque Center
Sun 02:13:24 PM 33.0914 -111.2128 106° East 427 491 26,600 2,032 Climbing Albuquerque Center
Sun 02:14:26 PM 33.0597 -111.0733 105° East 436 502 28,500 1,756 Climbing Albuquerque Center
Sun 02:15:27 PM 33.0269 -110.9300 105° East 446 513 30,200 1,902 Climbing Albuquerque Center
Sun 02:16:29 PM 32.9847 -110.7569 106° East 451 519 32,400 2,049 Climbing Albuquerque Center
Sun 02:17:30 PM 32.9517 -110.6169 106° East 451 519 34,400 1,463 Climbing Albuquerque Center
Sun 02:18:32 PM 32.9183 -110.4769 106° East 445 512 35,400 919 Climbing Albuquerque Center
Sun 02:19:34 PM 32.8831 -110.3325 106° East 450 518 36,300 1,220 Climbing Albuquerque Center
Sun 02:20:35 PM 32.8469 -110.1883 107° East 454 522 37,900 1,073 Climbing Albuquerque Center
Sun 02:21:37 PM 32.8122 -110.0458 106° East 454 522 38,500 585 Climbing Albuquerque Center
Sun 02:22:38 PM 32.7683 -109.8697 106° East 460 529 39,100 244 Climbing Albuquerque Center
Sun 02:23:40 PM 32.7297 -109.7211 107° East 469 540 39,000 -49 Descending Albuquerque Center
Sun 02:24:41 PM 32.6925 -109.5742 107° East 469 540 39,000  Level Albuquerque Center
Sun 02:25:43 PM 32.6547 -109.4278 107° East 469 540 39,000  Level Albuquerque Center
Sun 02:26:45 PM 32.6178 -109.2831 107° East 468 539 39,000  Level Albuquerque Center
Sun 02:27:46 PM 32.5822 -109.1381 106° East 466 536 39,000  Level Albuquerque Center
Sun 02:28:48 PM 32.5469 -108.9903 106° East 467 537 39,000  Level Albuquerque Center
Sun 02:29:49 PM 32.5081 -108.8128 105° East 467 537 39,000  Level Albuquerque Center
Sun 02:30:51 PM 32.4744 -108.6647 105° East 468 539 39,000  Level Albuquerque Center
Sun 02:31:53 PM 32.4414 -108.5161 105° East 468 539 39,000  Level Albuquerque Center
Sun 02:32:54 PM 32.4044 -108.3572 105° East 471 542 39,000  Level Albuquerque Center
Sun 02:33:56 PM 32.3706 -108.2081 105° East 471 542 39,000  Level Albuquerque Center
Sun 02:34:57 PM 32.3356 -108.0592 106° East 471 542 39,000  Level Albuquerque Center
Sun 02:35:59 PM 32.3017 -107.9114 105° East 471 542 39,000  Level Albuquerque Center
Sun 02:37:01 PM 32.2683 -107.7664 105° East 465 535 39,000  Level Albuquerque Center
Sun 02:38:02 PM 32.2264 -107.5933 106° East 463 533 39,000  Level Albuquerque Center
Sun 02:39:04 PM 32.1944 -107.4536 105° East 463 533 39,000  Level Albuquerque Center
Sun 02:40:06 PM 32.1581 -107.2981 105° East 473 544 39,000  Level Albuquerque Center
Sun 02:41:07 PM 32.1228 -107.1503 106° East 474 545 39,000  Level Albuquerque Center
Sun 02:42:09 PM 32.0878 -107.0028 106° East 474 545 39,000  Level Albuquerque Center
Sun 02:43:10 PM 32.0447 -106.8242 106° East 474 545 39,000  Level Albuquerque Center
Sun 02:44:12 PM 32.0081 -106.6750 106° East 475 547 39,000  Level Albuquerque Center
Sun 02:45:14 PM 31.9700 -106.5256 107° East 476 548 39,000  Level Albuquerque Center
Sun 02:46:15 PM 31.9325 -106.3769 107° East 476 548 39,000  Level Albuquerque Center
Sun 02:47:17 PM 31.8928 -106.2108 106° East 489 563 39,000  Level Albuquerque Center
Sun 02:48:18 PM 31.8506 -106.0481 107° East 483 556 39,000  Level Albuquerque Center
Sun 02:49:20 PM 31.8119 -105.8967 107° East 483 556 39,000  Level Albuquerque Center
Sun 02:50:21 PM 31.7728 -105.7469 107° East 482 555 39,000  Level Albuquerque Center
Sun 02:51:23 PM 31.7317 -105.5836 106° East 483 556 39,000  Level Albuquerque Center
Sun 02:52:24 PM 31.6939 -105.4311 106° East 484 557 39,000  Level Albuquerque Center
Sun 02:53:26 PM 31.6589 -105.2953 107° East 486 559 39,000  Level Albuquerque Center
Sun 02:54:27 PM 31.6181 -105.1406 107° East 491 565 39,000  Level Albuquerque Center
Sun 02:55:29 PM 31.5714 -104.9550 106° East 492 566 39,000  Level Albuquerque Center
Sun 02:56:31 PM 31.5342 -104.8006 106° East 492 566 39,000  Level Albuquerque Center
Sun 02:57:32 PM 31.4931 -104.6461 107° East 493 567 39,000  Level Albuquerque Center
Sun 02:58:34 PM 31.4508 -104.4886 107° East 503 579 39,000  Level Albuquerque Center
Sun 02:59:35 PM 31.4086 -104.3311 107° East 506 582 39,000  Level Albuquerque Center
Sun 03:00:37 PM 31.3681 -104.1772 107° East 503 579 39,000  Level Albuquerque Center
Sun 03:01:38 PM 31.3261 -104.0256 108° East 497 572 39,000 -49 Level Albuquerque Center
Sun 03:02:40 PM 31.2853 -103.8744 108° East 494 568 38,900 290 Descending Albuquerque Center
Sun 03:03:42 PM 31.2364 -103.6903 107° East 494 568 39,600 532 Climbing Albuquerque Center
Sun 03:04:44 PM 31.1933 -103.5358 108° East 495 570 40,000 194 Climbing Albuquerque Center
Sun 03:05:46 PM 31.1500 -103.3797 108° East 504 580 40,000  Level Albuquerque Center
Sun 03:06:47 PM 31.1064 -103.2261 108° East 504 580 40,000  Level Albuquerque Center
Sun 03:07:49 PM 31.0636 -103.0717 108° East 504 580 40,000  Level Albuquerque Center
Sun 03:08:50 PM 31.0200 -102.9153 108° East 507 583 40,000  Level Albuquerque Center
Sun 03:09:52 PM 30.9681 -102.7297 108° East 507 583 40,000  Level Albuquerque Center
Sun 03:10:53 PM 30.9239 -102.5750 108° East 507 583 40,000  Level Albuquerque Center
Sun 03:11:55 PM 30.8800 -102.4186 108° East 509 586 40,000  Level Albuquerque Center
Sun 03:12:56 PM 30.8353 -102.2614 108° East 512 589 40,000  Level Albuquerque Center
Sun 03:13:58 PM 30.7903 -102.1053 109° East 513 590 40,000  Level Albuquerque Center
Sun 03:14:40 PM 30.7564 -101.9808 108° East 514 592 40,000  Level Houston Center
Sun 03:15:41 PM 30.7108 -101.8253 109° East 513 590 40,000  Level Houston Center
Sun 03:16:43 PM 30.6653 -101.6692 109° East 513 590 40,000  Level Houston Center
Sun 03:17:45 PM 30.6164 -101.5011 109° East 514 592 40,000  Level Houston Center
Sun 03:18:47 PM 30.5703 -101.3447 109° East 514 592 40,000  Level Houston Center
Sun 03:19:49 PM 30.5228 -101.1864 109° East 516 594 40,000  Level Houston Center
Sun 03:20:50 PM 30.4767 -101.0253 108° East 522 601 40,000  Level Houston Center
Sun 03:21:52 PM 30.4214 -100.8700 112° Southeast 522 601 40,000  Level Houston Center
Sun 03:22:54 PM 30.3500 -100.6878 114° Southeast 521 600 40,000 -871 Level Houston Center
Sun 03:23:56 PM 30.2908 -100.5353 114° Southeast 520 598 38,200 -2,129 Descending Houston Center
Sun 03:24:58 PM 30.2283 -100.3911 117° Southeast 505 581 35,600 -2,537 Descending Houston Center
Sun 03:25:59 PM 30.1656 -100.2533 118° Southeast 476 548 33,000 -3,415 Descending Houston Center
Sun 03:27:01 PM 30.1019 -100.1186 119° Southeast 464 534 28,600 -3,629 Descending Houston Center
Sun 03:28:03 PM 30.0375 -99.9864 119° Southeast 467 537 25,500 -2,661 Descending Houston Center
Sun 03:29:05 PM 29.9894 -99.8533 113° Southeast 454 522 23,100 -2,081 Descending Houston Center
Sun 03:30:07 PM 29.9750 -99.7133 97° East 444 511 21,200 -1,902 Descending Houston Center
Sun 03:31:08 PM 29.9614 -99.5811 97° East 419 482 19,200 -2,049 Descending Houston Center
Sun 03:32:10 PM 29.9461 -99.4297 97° East 402 463 17,000 -1,935 Descending Houston Center
Sun 03:33:12 PM 29.9319 -99.3083 98° East 385 443 15,200 -1,816 Descending Houston Center
Sun 03:33:26 PM 29.9283 -99.2728 97° East 384 442 14,700 -1,913 Descending Houston Center
Sun 03:34:21 PM 29.9047 -99.1694 105° East 364 419 13,000 -1,761 Descending Houston Center
Sun 03:35:15 PM 29.8747 -99.0869 113° Southeast 356 410 11,500 -1,818 Descending Houston Center
Sun 03:35:27 PM 29.8636 -99.0586 114° Southeast 346 398 11,000 -1,452 Descending Houston Center
Sun 03:36:17 PM 29.8325 -98.9731 113° Southeast 342 394 10,000 -985 Descending Houston Center
Sun 03:36:34 PM 29.8169 -98.9581 140° Southeast 318 366 9,900 -600 Descending Houston Center
Sun 03:37:17 PM 29.7769 -98.9097 134° Southeast 263 303 9,400 -1,049 Descending Houston Center
Sun 03:38:17 PM 29.7275 -98.8481 133° Southeast 258 297 8,100 -1,240 Descending Houston Center
Sun 03:39:18 PM 29.6781 -98.7867 133° Southeast 256 295 6,900 -1,190 Descending Houston Center
Sun 03:40:13 PM 29.6356 -98.7339 133° Southeast 248 285 5,800 -1,182 Descending Houston Center
Sun 03:40:24 PM 29.6281 -98.7253 135° Southeast 252 290 5,600 -740 Descending Houston Center
Sun 03:41:26 PM 29.5808 -98.6692 134° Southeast 230 265 4,900 -649 Descending Houston Center
Sun 03:41:38 PM 29.5744 -98.6642 146° Southeast 204 235 4,800 -1,273 Descending Houston Center
Sun 03:42:32 PM 29.5394 -98.6228 134° Southeast 190 219 3,500 -1,232 Descending Houston Center
Sun 03:43:30 PM 29.5017 -98.5783 134° Southeast 198 228 2,500 -522 Descending Houston Center
Sun 03:44:27 PM 29.4758 -98.5486 135° Southeast 138 159 2,500 -356 Level Houston Center
Sun 03:45:28 PM 29.4867 -98.5067 73° East 150 173 1,800 -797 Descending Houston Center
Sun 03:46:35 PM 29.5239 -98.4694 41° Northeast 155 178 800 -896 Descending Houston Center
Sun 03:48:00 PM 29.5333 -98.4667 120° Southeast  Level FlightAware Approximate

Login

Don't have an account? Register now (free) for customized features, flight alerts, and more!